Lamont, FL (32336)

4:03 PM EDT on May 22, 2015 (GMT -0400)
Frontier Estates, 7.4mi E of town | | Change Station
CLOSE
Current Station
Personal Weather Station
Location: Tallahassee, FL
Elevation: 100 ft
Nearby Weather Stations

Elev 100 ft 30.42 °N, 84.16 °W | Updated 3 minutes ago

Clear
Clear
84.7 °F
Feels Like 82 °F
N
0.0
Wind Variable Wind from NNW
Gusts 0.0 mph

Today
High -- | Low -- °F
--% Chance of Precip.
Yesterday
High -- | Low -- °F
Precip. -- in
6:38 AM 8:27 PM
Waxing Crescent, 23% visible
Pressure 30.12 in
Visibility 10.0 miles
Clouds Scattered Clouds 25000 ft
Heat Index 82 °F
Dew Point 32 °F
Humidity 8%
Rainfall -999.00 in
Snow Depth Not available.
UV 8 out of 12
Pollen 5.70 out of 12
Air Quality Not available.
Flu Activity Sporadic
METAR KTLH 221953Z 34007KT 10SM SCT250 31/13 A3012 RMK AO2 SLP199 T03060128

More Conditions Fewer Conditions

Pressure 30.12 in
Visibility 10.0 miles
Clouds Scattered Clouds 25000 ft
Heat Index 82 °F
Dew Point 32 °F
Humidity 8%
Rainfall -999.00 in
Snow Depth Not available.
UV 8 out of 12
Pollen 5.70 out of 12
Air Quality Not available.
Flu Activity Sporadic
METAR KTLH 221953Z 34007KT 10SM SCT250 31/13 A3012 RMK AO2 SLP199 T03060128

More Conditions Fewer Conditions

10-Day Weather Forecast

Almanac

Astronomy

May. 22, 2015 Rise Set
Actual Time
Civil Twilight
Nautical Twilight
Astronomical Twilight
Moon
Length of Visible Light
Length of Day
Tomorrow will be .
, % of the Moon is Illuminated

Today's Extremes

State Highs State Lows

Community

WunderPhotos

Upload Photos

1,823,288 photos uploaded!

WunderBlogs® & News

Nearby

Air Quality

  Air Quality AQ Index Pollutant
Not available.

Snow Depth

Station Depth Elevation

Earthquake Activity

City Distance Mag. Time & Date
Minimum magnitude displayed is 2.5.

Coastal Water Temperatures

Place Temperature

Stations

Nearby Weather Stations

Station Location Temp. Windchill Dew Point Humidity Wind Precip. Elev Updated Type